createdAt,value
2023-02-15T00:00:13.291Z,101911.81
2023-02-15T00:03:01.075Z,101912.06
2023-02-15T00:05:31.407Z,101917.38
2023-02-15T00:07:59.546Z,101925.34
2023-02-15T00:10:27.560Z,101923.72
2023-02-15T00:12:55.111Z,101921.06
2023-02-15T00:15:24.077Z,101923.19
2023-02-15T00:17:51.700Z,101924.75
2023-02-15T00:20:20.099Z,101922.59
2023-02-15T00:22:47.577Z,101921.50
2023-02-15T00:25:15.600Z,101928.41
2023-02-15T00:27:43.101Z,101915.38
2023-02-15T00:30:11.670Z,101925.22
2023-02-15T00:32:39.214Z,101920.97
2023-02-15T00:35:07.985Z,101919.88
2023-02-15T00:37:36.372Z,101917.97
2023-02-15T00:40:05.860Z,101914.22
2023-02-15T00:42:33.414Z,101912.38
2023-02-15T00:45:01.831Z,101907.84
2023-02-15T00:47:30.264Z,101907.66
2023-02-15T00:49:58.072Z,101907.16
2023-02-15T00:52:25.608Z,101905.84
2023-02-15T00:54:53.373Z,101904.81
2023-02-15T00:57:21.026Z,101905.09
2023-02-15T00:59:48.859Z,101898.22
2023-02-15T01:02:16.485Z,101904.84
2023-02-15T01:04:44.594Z,101904.06
2023-02-15T01:07:12.113Z,101908.31
2023-02-15T01:09:40.008Z,101904.06
2023-02-15T01:12:10.131Z,101909.66
2023-02-15T01:14:39.099Z,101902.44
2023-02-15T01:17:06.741Z,101904.56
2023-02-15T01:19:36.874Z,101883.56
2023-02-15T01:22:04.641Z,101891.28
2023-02-15T01:24:36.564Z,101897.91
2023-02-15T01:27:04.222Z,101890.47
2023-02-15T01:29:32.189Z,101890.97
2023-02-15T01:31:59.920Z,101892.03
2023-02-15T01:34:27.770Z,101888.84
2023-02-15T01:36:55.326Z,101892.84
2023-02-15T01:39:23.447Z,101881.13
2023-02-15T01:41:52.659Z,101883.53
2023-02-15T01:44:58.860Z,101878.47
2023-02-15T01:47:38.473Z,101888.03
2023-02-15T01:50:17.301Z,101892.28
2023-02-15T01:52:56.871Z,101882.22
2023-02-15T01:55:31.451Z,101888.06
2023-02-15T01:57:59.779Z,101883.78
2023-02-15T02:00:27.846Z,101885.91
2023-02-15T02:02:58.113Z,101886.94
2023-02-15T02:05:27.262Z,101881.63
2023-02-15T02:07:59.611Z,101874.69
2023-02-15T02:10:28.154Z,101889.31
2023-02-15T02:13:03.991Z,101878.94
2023-02-15T02:16:07.569Z,101882.16
2023-02-15T02:19:11.491Z,101871.22
2023-02-15T02:22:23.654Z,101873.59
2023-02-15T02:24:59.320Z,101881.06
2023-02-15T02:28:17.161Z,101878.41
2023-02-15T02:31:19.558Z,101882.66
2023-02-15T02:34:01.814Z,101885.31
2023-02-15T02:36:59.294Z,101889.81
2023-02-15T02:39:48.310Z,101883.75
2023-02-15T02:42:27.217Z,101881.88
2023-02-15T02:45:17.737Z,101881.38
2023-02-15T02:47:50.104Z,101875.25
2023-02-15T02:50:27.849Z,101882.72
2023-02-15T02:52:58.287Z,101877.63
2023-02-15T02:55:50.232Z,101880.00
2023-02-15T02:58:39.238Z,101877.81
2023-02-15T03:01:21.147Z,101876.72
2023-02-15T03:03:57.094Z,101875.09
2023-02-15T03:06:50.066Z,101886.81
2023-02-15T03:09:45.773Z,101871.97
2023-02-15T03:12:21.551Z,101876.19
2023-02-15T03:15:01.059Z,101872.19
2023-02-15T03:17:30.705Z,101874.56
2023-02-15T03:20:12.086Z,101872.91
2023-02-15T03:23:16.621Z,101867.06
2023-02-15T03:26:00.720Z,101873.94
2023-02-15T03:28:46.775Z,101876.31
2023-02-15T03:31:16.299Z,101877.13
2023-02-15T03:33:51.594Z,101885.34
2023-02-15T03:36:43.643Z,101883.97
2023-02-15T03:39:37.468Z,101873.84
2023-02-15T03:42:34.516Z,101873.59
2023-02-15T03:45:11.002Z,101882.38
2023-02-15T03:47:48.331Z,101875.47
2023-02-15T03:50:44.615Z,101879.75
2023-02-15T03:53:16.468Z,101874.66
2023-02-15T03:55:48.997Z,101874.88
2023-02-15T03:58:35.146Z,101870.06
2023-02-15T04:01:58.988Z,101875.41
2023-02-15T04:04:35.771Z,101866.88
2023-02-15T04:07:07.806Z,101869.50
2023-02-15T04:09:54.100Z,101870.00
2023-02-15T04:12:22.267Z,101876.94
2023-02-15T04:15:08.459Z,101880.94
2023-02-15T04:17:38.858Z,101870.00
2023-02-15T04:20:26.124Z,101876.38
2023-02-15T04:23:12.237Z,101880.88
2023-02-15T04:25:39.833Z,101887.16
2023-02-15T04:28:08.813Z,101883.75
2023-02-15T04:30:36.541Z,101892.22
2023-02-15T04:33:04.451Z,101888.00
2023-02-15T04:35:32.870Z,101887.41
2023-02-15T04:38:01.111Z,101879.44
2023-02-15T04:40:28.706Z,101890.31
2023-02-15T04:42:56.602Z,101885.81
2023-02-15T04:45:24.125Z,101885.22
2023-02-15T04:47:52.044Z,101878.28
2023-02-15T04:50:19.955Z,101888.91
2023-02-15T04:52:47.929Z,101888.13
2023-02-15T04:55:15.649Z,101889.72
2023-02-15T04:57:43.525Z,101887.63
2023-02-15T05:00:11.836Z,101880.41
2023-02-15T05:02:39.819Z,101890.97
2023-02-15T05:05:08.309Z,101885.94
2023-02-15T05:07:36.211Z,101879.31
2023-02-15T05:10:04.023Z,101881.44
2023-02-15T05:12:32.210Z,101879.63
2023-02-15T05:14:59.725Z,101892.03
2023-02-15T05:17:27.535Z,101897.38
2023-02-15T05:19:55.080Z,101898.44
2023-02-15T05:22:22.961Z,101902.69
2023-02-15T05:25:09.148Z,101905.31
2023-02-15T05:27:55.856Z,101894.09
2023-02-15T05:30:23.490Z,101903.09
2023-02-15T05:32:51.424Z,101904.03
2023-02-15T05:35:19.491Z,101908.78
2023-02-15T05:37:47.480Z,101902.66
2023-02-15T05:40:15.069Z,101910.66
2023-02-15T05:42:42.965Z,101913.06
2023-02-15T05:45:10.966Z,101919.81
2023-02-15T05:47:38.745Z,101920.03
2023-02-15T05:50:07.350Z,101917.63
2023-02-15T05:52:35.925Z,101923.75
2023-02-15T05:55:04.587Z,101922.91
2023-02-15T05:57:33.054Z,101919.94
2023-02-15T06:00:00.703Z,101912.97
2023-02-15T06:02:28.555Z,101921.00
2023-02-15T06:04:56.173Z,101917.88
2023-02-15T06:07:24.016Z,101922.22
2023-02-15T06:09:51.580Z,101928.91
2023-02-15T06:12:19.868Z,101922.31
2023-02-15T06:14:47.390Z,101919.16
2023-02-15T06:17:15.598Z,101926.78
2023-02-15T06:19:43.893Z,101924.41
2023-02-15T06:22:11.961Z,101919.66
2023-02-15T06:24:39.498Z,101923.09
2023-02-15T06:27:07.422Z,101924.72
2023-02-15T06:29:35.249Z,101917.00
2023-02-15T06:32:04.506Z,101920.69
2023-02-15T06:34:32.123Z,101927.13
2023-02-15T06:37:00.242Z,101920.25
2023-02-15T06:39:27.683Z,101924.28
2023-02-15T06:41:56.477Z,101933.91
2023-02-15T06:44:24.254Z,101921.97
2023-02-15T06:46:52.191Z,101925.75
2023-02-15T06:49:19.710Z,101927.94
2023-02-15T06:51:47.492Z,101924.50
2023-02-15T06:54:15.042Z,101926.34
2023-02-15T06:56:44.599Z,101929.00
2023-02-15T06:59:12.426Z,101933.28
2023-02-15T07:01:40.642Z,101925.84
2023-02-15T07:04:08.363Z,101928.81
2023-02-15T07:06:37.017Z,101925.91
2023-02-15T07:09:05.325Z,101934.75
2023-02-15T07:11:52.039Z,101933.56
2023-02-15T07:14:19.742Z,101933.75
2023-02-15T07:16:47.576Z,101931.13
2023-02-15T07:19:15.145Z,101936.22
2023-02-15T07:21:43.231Z,101940.19
2023-02-15T07:24:10.748Z,101937.81
2023-02-15T07:26:38.708Z,101936.50
2023-02-15T07:29:06.458Z,101932.81
2023-02-15T07:31:34.276Z,101939.19
2023-02-15T07:34:02.216Z,101939.72
2023-02-15T07:36:30.090Z,101938.16
2023-02-15T07:38:57.711Z,101938.72
2023-02-15T07:41:25.687Z,101940.84
2023-02-15T07:43:53.284Z,101939.25
2023-02-15T07:46:21.986Z,101928.09
2023-02-15T07:48:49.921Z,101935.53
2023-02-15T07:51:17.868Z,101921.16
2023-02-15T07:53:45.604Z,101930.75
2023-02-15T07:56:15.699Z,101933.41
2023-02-15T07:58:53.159Z,101937.41
2023-02-15T08:01:31.012Z,101929.69
2023-02-15T08:03:59.465Z,101936.09
2023-02-15T08:06:31.254Z,101932.94
2023-02-15T08:08:59.158Z,101932.66
2023-02-15T08:11:33.938Z,101938.53
2023-02-15T08:14:15.003Z,101940.91
2023-02-15T08:17:00.508Z,101943.59
2023-02-15T08:19:31.008Z,101945.69
2023-02-15T08:22:01.218Z,101934.53
2023-02-15T08:24:32.359Z,101942.78
2023-02-15T08:27:00.520Z,101948.38
2023-02-15T08:29:29.978Z,101936.66
2023-02-15T08:32:06.204Z,101936.66
2023-02-15T08:34:41.579Z,101943.06
2023-02-15T08:37:10.444Z,101947.31
2023-02-15T08:39:38.134Z,101942.25
2023-02-15T08:42:06.118Z,101938.03
2023-02-15T08:44:33.577Z,101937.72
2023-02-15T08:47:04.832Z,101945.19
2023-02-15T08:49:33.304Z,101947.06
2023-02-15T08:52:01.703Z,101942.00
2023-02-15T08:54:29.292Z,101944.13
2023-02-15T08:56:57.284Z,101947.31
2023-02-15T08:59:27.849Z,101947.84
2023-02-15T09:01:56.584Z,101954.78
2023-02-15T09:04:24.480Z,101946.00
2023-02-15T09:06:53.281Z,101945.16
2023-02-15T09:09:21.408Z,101943.06
2023-02-15T09:11:57.856Z,101953.41
2023-02-15T09:14:28.104Z,101952.59
2023-02-15T09:16:56.733Z,101940.31
2023-02-15T09:19:25.218Z,101946.69
2023-02-15T09:21:52.935Z,101954.38
2023-02-15T09:24:20.993Z,101946.38
2023-02-15T09:26:49.741Z,101941.34
2023-02-15T09:29:19.383Z,101949.34
2023-02-15T09:31:50.009Z,101942.66
2023-02-15T09:34:22.005Z,101946.09
2023-02-15T09:36:50.819Z,101940.75
2023-02-15T09:39:29.043Z,101940.69
2023-02-15T09:42:32.680Z,101930.25
2023-02-15T09:45:56.902Z,101938.25
2023-02-15T09:48:41.285Z,101944.38
2023-02-15T09:52:06.639Z,101925.41
2023-02-15T09:55:04.009Z,101927.63
2023-02-15T09:57:48.283Z,101921.44
2023-02-15T10:00:35.564Z,101919.53
2023-02-15T10:03:28.046Z,101926.41
2023-02-15T10:06:34.828Z,101916.91
2023-02-15T10:09:37.913Z,101919.78
2023-02-15T10:12:36.949Z,101913.66
2023-02-15T10:18:56.685Z,101906.66
2023-02-15T10:25:16.711Z,101902.38
2023-02-15T10:27:50.659Z,101900.31
2023-02-15T10:31:04.362Z,101895.53
2023-02-15T10:33:41.575Z,101884.56
2023-02-15T10:36:40.264Z,101884.84
2023-02-15T10:39:42.666Z,101881.38
2023-02-15T10:42:49.212Z,101877.41
2023-02-15T10:45:51.019Z,101871.13
2023-02-15T10:48:53.343Z,101870.25
2023-02-15T10:51:44.963Z,101866.19
2023-02-15T10:54:30.630Z,101853.50
2023-02-15T10:57:16.612Z,101859.56
2023-02-15T11:00:15.104Z,101857.44
2023-02-15T11:03:32.246Z,101847.72
2023-02-15T11:06:12.808Z,101842.06
2023-02-15T11:08:50.994Z,101839.06
2023-02-15T11:11:30.615Z,101837.88
2023-02-15T11:14:55.149Z,101841.41
2023-02-15T11:17:45.236Z,101847.72
2023-02-15T11:20:35.468Z,101841.72
2023-02-15T11:23:03.715Z,101842.59
2023-02-15T11:25:36.570Z,101833.16
2023-02-15T11:28:14.554Z,101824.22
2023-02-15T11:30:53.166Z,101823.75
2023-02-15T11:33:36.207Z,101821.44
2023-02-15T11:36:18.845Z,101815.38
2023-02-15T11:38:50.364Z,101814.31
2023-02-15T11:41:28.417Z,101815.03
2023-02-15T11:44:17.631Z,101810.94
2023-02-15T11:46:45.698Z,101810.88
2023-02-15T11:49:40.220Z,101802.75
2023-02-15T11:52:19.588Z,101787.88
2023-02-15T11:54:51.544Z,101790.75
2023-02-15T11:57:41.481Z,101783.84
2023-02-15T12:00:57.158Z,101777.00
2023-02-15T12:03:47.574Z,101770.22
2023-02-15T12:06:39.762Z,101767.84
2023-02-15T12:09:46.739Z,101772.00
2023-02-15T12:12:33.421Z,101777.50
2023-02-15T12:15:05.489Z,101776.66
2023-02-15T12:17:55.969Z,101774.72
2023-02-15T12:20:33.117Z,101764.19
2023-02-15T12:23:05.504Z,101763.94
2023-02-15T12:25:44.751Z,101767.81
2023-02-15T12:28:45.431Z,101770.97
2023-02-15T12:31:47.646Z,101754.69
2023-02-15T12:34:32.187Z,101752.84
2023-02-15T12:37:10.417Z,101754.97
2023-02-15T12:39:39.446Z,101750.63
2023-02-15T12:42:18.462Z,101747.50
2023-02-15T12:45:20.392Z,101744.19
2023-02-15T12:48:08.544Z,101735.13
2023-02-15T12:50:36.360Z,101728.19
2023-02-15T12:53:35.594Z,101737.81
2023-02-15T12:56:11.370Z,101724.03
2023-02-15T12:58:43.130Z,101728.50
2023-02-15T13:01:13.762Z,101730.53
2023-02-15T13:04:08.290Z,101722.25
2023-02-15T13:06:37.931Z,101717.94
2023-02-15T13:09:32.267Z,101727.09
2023-02-15T13:12:34.719Z,101720.94
2023-02-15T13:15:04.227Z,101715.75
2023-02-15T13:17:35.264Z,101710.94
2023-02-15T13:20:17.610Z,101714.63
2023-02-15T13:22:49.061Z,101712.91
2023-02-15T13:25:26.287Z,101712.72
2023-02-15T13:28:01.582Z,101708.28
2023-02-15T13:30:47.451Z,101710.00
2023-02-15T13:33:27.378Z,101707.50
2023-02-15T13:36:19.032Z,101707.53
2023-02-15T13:39:00.421Z,101714.56
2023-02-15T13:41:37.646Z,101712.31
2023-02-15T13:44:29.967Z,101704.69
2023-02-15T13:47:09.793Z,101708.53
2023-02-15T13:50:24.937Z,101710.34
2023-02-15T13:53:08.374Z,101708.53
2023-02-15T13:55:57.000Z,101708.41
2023-02-15T13:58:56.896Z,101700.50
2023-02-15T14:01:59.585Z,101705.38
2023-02-15T14:04:49.217Z,101700.28
2023-02-15T14:07:22.542Z,101698.13
2023-02-15T14:10:12.054Z,101700.47
2023-02-15T14:13:02.886Z,101689.97
2023-02-15T14:16:06.932Z,101687.84
2023-02-15T14:19:21.770Z,101689.25
2023-02-15T14:22:10.335Z,101686.53
2023-02-15T14:24:56.273Z,101689.47
2023-02-15T14:27:44.458Z,101692.78
2023-02-15T14:30:37.601Z,101690.56
2023-02-15T14:33:46.736Z,101692.47
2023-02-15T14:36:20.528Z,101687.34
2023-02-15T14:39:35.049Z,101684.63
2023-02-15T14:42:43.932Z,101689.16
2023-02-15T14:45:43.907Z,101684.41
2023-02-15T14:48:23.206Z,101692.06
2023-02-15T14:50:51.132Z,101689.34
2023-02-15T14:53:24.204Z,101682.78
2023-02-15T14:56:14.747Z,101682.38
2023-02-15T14:58:51.212Z,101690.59
2023-02-15T15:01:35.162Z,101682.19
2023-02-15T15:04:35.634Z,101684.94
2023-02-15T15:07:08.674Z,101686.81
2023-02-15T15:09:41.658Z,101690.13
2023-02-15T15:12:27.109Z,101688.94
2023-02-15T15:14:55.897Z,101686.97
2023-02-15T15:17:38.795Z,101684.97
2023-02-15T15:20:14.722Z,101678.34
2023-02-15T15:22:44.695Z,101685.88
2023-02-15T15:25:42.132Z,101680.53
2023-02-15T15:28:10.171Z,101682.22
2023-02-15T15:30:37.592Z,101674.34
2023-02-15T15:34:11.819Z,101681.53
2023-02-15T15:37:07.548Z,101671.59
2023-02-15T15:40:09.140Z,101670.56
2023-02-15T15:42:58.501Z,101682.13
2023-02-15T15:46:21.946Z,101681.25
2023-02-15T15:48:49.984Z,101668.69
2023-02-15T15:51:44.968Z,101671.88
2023-02-15T15:54:26.139Z,101661.84
2023-02-15T15:57:05.015Z,101672.94
2023-02-15T15:59:35.373Z,101669.47
2023-02-15T16:02:08.837Z,101668.09
2023-02-15T16:04:36.775Z,101666.09
2023-02-15T16:07:19.755Z,101667.78
2023-02-15T16:10:05.733Z,101673.22
2023-02-15T16:12:37.267Z,101672.19
2023-02-15T16:15:20.547Z,101674.75
2023-02-15T16:17:56.049Z,101674.69
2023-02-15T16:20:35.420Z,101669.63
2023-02-15T16:23:35.818Z,101679.25
2023-02-15T16:27:19.728Z,101672.78
2023-02-15T16:29:47.557Z,101681.00
2023-02-15T16:32:29.293Z,101671.00
2023-02-15T16:35:03.670Z,101674.28
2023-02-15T16:37:36.512Z,101670.66
2023-02-15T16:40:04.980Z,101669.13
2023-02-15T16:42:32.470Z,101677.19
2023-02-15T16:45:17.556Z,101671.66
2023-02-15T16:47:54.186Z,101672.00
2023-02-15T16:50:35.592Z,101669.91
2023-02-15T16:53:06.472Z,101679.06
2023-02-15T16:55:42.120Z,101673.25
2023-02-15T16:58:16.857Z,101673.00
2023-02-15T17:00:45.235Z,101673.84
2023-02-15T17:03:15.501Z,101670.94
2023-02-15T17:05:51.171Z,101676.03
2023-02-15T17:08:29.553Z,101679.25
2023-02-15T17:11:00.755Z,101672.09
2023-02-15T17:13:30.022Z,101680.91
2023-02-15T17:16:01.088Z,101679.91
2023-02-15T17:18:44.889Z,101678.88
2023-02-15T17:21:25.318Z,101679.41
2023-02-15T17:24:05.134Z,101676.25
2023-02-15T17:26:36.992Z,101672.78
2023-02-15T17:29:52.964Z,101670.13
2023-02-15T17:32:25.784Z,101675.50
2023-02-15T17:35:29.203Z,101671.53
2023-02-15T17:38:20.356Z,101676.63
2023-02-15T17:40:48.427Z,101672.63
2023-02-15T17:43:16.194Z,101675.03
2023-02-15T17:45:50.447Z,101669.97
2023-02-15T17:48:40.636Z,101664.66
2023-02-15T17:51:13.769Z,101652.41
2023-02-15T17:54:06.827Z,101652.13
2023-02-15T17:56:36.137Z,101657.47
2023-02-15T17:59:07.803Z,101651.91
2023-02-15T18:02:01.135Z,101647.69
2023-02-15T18:04:47.846Z,101652.78
2023-02-15T18:07:36.046Z,101646.63
2023-02-15T18:10:37.098Z,101646.38
2023-02-15T18:13:04.851Z,101649.06
2023-02-15T18:15:32.993Z,101652.28
2023-02-15T18:18:00.719Z,101645.66
2023-02-15T18:20:37.030Z,101649.94
2023-02-15T18:23:04.750Z,101646.19
2023-02-15T18:25:32.651Z,101647.28
2023-02-15T18:28:00.221Z,101644.91
2023-02-15T18:30:28.313Z,101650.50
2023-02-15T18:32:58.492Z,101646.25
2023-02-15T18:35:33.520Z,101649.41
2023-02-15T18:38:02.199Z,101652.59
2023-02-15T18:40:30.778Z,101647.28
2023-02-15T18:42:58.374Z,101648.34
2023-02-15T18:45:32.911Z,101655.78
2023-02-15T18:48:00.729Z,101648.59
2023-02-15T18:50:37.774Z,101651.22
2023-02-15T18:53:13.641Z,101648.53
2023-02-15T18:55:41.625Z,101648.25
2023-02-15T18:58:19.837Z,101644.53
2023-02-15T19:00:49.966Z,101652.53
2023-02-15T19:03:19.003Z,101649.28
2023-02-15T19:05:47.727Z,101651.41
2023-02-15T19:08:24.740Z,101648.19
2023-02-15T19:10:52.883Z,101648.19
2023-02-15T19:13:20.440Z,101651.09
2023-02-15T19:15:48.265Z,101649.78
2023-02-15T19:18:17.023Z,101643.88
2023-02-15T19:20:46.886Z,101648.13
2023-02-15T19:23:24.846Z,101648.91
2023-02-15T19:25:53.880Z,101651.81
2023-02-15T19:28:34.287Z,101644.38
2023-02-15T19:31:02.202Z,101652.88
2023-02-15T19:33:29.902Z,101648.63
2023-02-15T19:35:57.943Z,101640.63
2023-02-15T19:38:36.623Z,101640.63
2023-02-15T19:41:16.896Z,101634.50
2023-02-15T19:43:55.666Z,101633.41
2023-02-15T19:46:24.355Z,101635.28
2023-02-15T19:48:53.545Z,101634.50
2023-02-15T19:51:23.282Z,101637.44
2023-02-15T19:53:51.782Z,101634.25
2023-02-15T19:56:24.512Z,101628.41
2023-02-15T19:58:52.295Z,101631.06
2023-02-15T20:01:20.241Z,101627.31
2023-02-15T20:03:47.943Z,101625.16
2023-02-15T20:06:16.835Z,101632.66
2023-02-15T20:08:45.546Z,101622.00
2023-02-15T20:11:14.461Z,101620.41
2023-02-15T20:13:42.192Z,101609.19
2023-02-15T20:16:10.175Z,101615.63
2023-02-15T20:18:37.794Z,101615.13
2023-02-15T20:21:09.407Z,101622.03
2023-02-15T20:23:37.629Z,101618.56
2023-02-15T20:26:18.539Z,101621.50
2023-02-15T20:28:47.343Z,101619.13
2023-02-15T20:31:17.578Z,101623.66
2023-02-15T20:33:45.852Z,101625.81
2023-02-15T20:36:19.247Z,101625.00
2023-02-15T20:38:47.221Z,101623.94
2023-02-15T20:41:39.142Z,101619.16
2023-02-15T20:44:15.685Z,101620.50
2023-02-15T20:46:43.785Z,101616.25
2023-02-15T20:49:11.769Z,101620.78
2023-02-15T20:51:41.705Z,101622.13
2023-02-15T20:54:16.318Z,101608.28
2023-02-15T20:56:45.990Z,101610.44
2023-02-15T20:59:24.350Z,101612.56
2023-02-15T21:01:59.075Z,101607.25
2023-02-15T21:04:34.383Z,101605.63
2023-02-15T21:07:02.570Z,101601.38
2023-02-15T21:09:30.305Z,101597.13
2023-02-15T21:12:00.103Z,101591.28
2023-02-15T21:14:28.419Z,101585.97
2023-02-15T21:16:56.213Z,101592.09
2023-02-15T21:19:24.810Z,101588.66
2023-02-15T21:21:53.778Z,101583.84
2023-02-15T21:24:28.531Z,101587.03
2023-02-15T21:27:02.989Z,101579.53
2023-02-15T21:29:31.614Z,101576.88
2023-02-15T21:32:00.518Z,101570.47
2023-02-15T21:34:28.123Z,101565.16
2023-02-15T21:36:56.212Z,101574.72
2023-02-15T21:39:29.929Z,101571.50
2023-02-15T21:42:16.923Z,101572.59
2023-02-15T21:45:02.755Z,101572.59
2023-02-15T21:47:50.645Z,101579.00
2023-02-15T21:50:43.182Z,101569.94
2023-02-15T21:53:24.548Z,101568.59
2023-02-15T21:55:57.378Z,101571.00
2023-02-15T21:58:29.154Z,101568.56
2023-02-15T22:00:59.322Z,101573.91
2023-02-15T22:03:39.787Z,101569.34
2023-02-15T22:06:13.625Z,101571.50
2023-02-15T22:08:41.664Z,101579.00
2023-02-15T22:11:16.261Z,101573.13
2023-02-15T22:13:45.587Z,101565.66
2023-02-15T22:16:17.742Z,101568.31
2023-02-15T22:18:46.430Z,101568.31
2023-02-15T22:21:16.651Z,101571.78
2023-02-15T22:23:44.653Z,101564.59
2023-02-15T22:26:24.139Z,101564.03
2023-02-15T22:28:52.297Z,101558.69
2023-02-15T22:31:23.150Z,101557.91
2023-02-15T22:33:51.835Z,101559.50
2023-02-15T22:36:28.804Z,101559.78
2023-02-15T22:38:57.837Z,101561.34
2023-02-15T22:41:30.234Z,101558.19
2023-02-15T22:43:58.888Z,101555.50
2023-02-15T22:46:27.133Z,101556.59
2023-02-15T22:48:55.252Z,101553.38
2023-02-15T22:51:25.053Z,101557.13
2023-02-15T22:53:53.887Z,101562.44
2023-02-15T22:56:53.198Z,101557.91
2023-02-15T22:59:28.929Z,101556.59
2023-02-15T23:01:57.679Z,101552.34
2023-02-15T23:04:28.659Z,101550.72
2023-02-15T23:06:59.507Z,101546.50
2023-02-15T23:09:27.428Z,101546.50
2023-02-15T23:11:55.059Z,101542.22
2023-02-15T23:14:32.734Z,101541.72
2023-02-15T23:17:00.443Z,101533.72
2023-02-15T23:19:29.224Z,101535.88
2023-02-15T23:21:56.991Z,101543.34
2023-02-15T23:24:29.882Z,101537.47
2023-02-15T23:27:18.072Z,101539.34
2023-02-15T23:29:47.655Z,101543.91
2023-02-15T23:32:15.657Z,101542.28
2023-02-15T23:34:43.913Z,101542.31
2023-02-15T23:37:14.723Z,101547.94
2023-02-15T23:40:01.620Z,101549.81
2023-02-15T23:42:33.282Z,101543.16
2023-02-15T23:45:02.595Z,101539.41
2023-02-15T23:47:54.076Z,101534.81
2023-02-15T23:50:30.421Z,101533.66
2023-02-15T23:52:59.667Z,101529.34
2023-02-15T23:55:38.787Z,101527.75
2023-02-15T23:58:14.480Z,101524.09
